Time;durP1;ratioP1;P1;durP2;ratioP2;P2;SDS_P1;SDS_P2;PMS_P1;PMS_P2;Temp;Humidity;BMP_temperature;BMP_pressure;BME280_temperature;BME280_humidity;BME280_pressure;Samples;Min_cycle;Max_cycle;Signal;HPM_P1;HPM_P2
2021/04/26 00:01:32;;;;;;;5.22;2.33;;;3.80;99.90;;;;;;4988153;28;20162;-74
2021/04/26 00:03:58;;;;;;;3.13;2.10;;;3.70;99.90;;;;;;4996297;28;20110;-74
2021/04/26 00:06:24;;;;;;;3.15;2.17;;;3.70;99.90;;;;;;4993351;28;20189;-74
2021/04/26 00:08:50;;;;;;;4.75;2.30;;;3.60;99.90;;;;;;4970906;28;20090;-74
2021/04/26 00:11:15;;;;;;;3.28;2.15;;;3.50;99.90;;;;;;4990425;28;20086;-74
2021/04/26 00:13:41;;;;;;;5.13;2.75;;;3.70;99.90;;;;;;4994548;28;20075;-74
2021/04/26 00:16:07;;;;;;;3.08;2.58;;;3.70;99.90;;;;;;4989240;28;20458;-74
2021/04/26 00:18:32;;;;;;;4.13;2.40;;;3.40;99.90;;;;;;4989440;28;20082;-74
2021/04/26 00:20:58;;;;;;;2.50;2.15;;;3.30;99.90;;;;;;4986346;28;20082;-74
2021/04/26 00:23:24;;;;;;;4.50;2.17;;;3.10;99.90;;;;;;4997107;28;20479;-74
2021/04/26 00:25:49;;;;;;;2.90;2.05;;;3.20;99.90;;;;;;4988168;28;20105;-73
2021/04/26 00:28:15;;;;;;;2.75;1.88;;;3.20;99.90;;;;;;4988171;28;20075;-74
2021/04/26 00:30:41;;;;;;;4.05;2.35;;;3.20;99.90;;;;;;4990867;28;20074;-73
2021/04/26 00:33:06;;;;;;;2.85;2.15;;;3.20;99.90;;;;;;4987921;28;20087;-73
2021/04/26 00:35:32;;;;;;;3.08;2.17;;;3.30;99.90;;;;;;4989109;28;20117;-74
2021/04/26 00:37:57;;;;;;;3.45;2.15;;;3.30;99.90;;;;;;4989221;28;20082;-74
2021/04/26 00:40:23;;;;;;;3.80;2.42;;;3.30;99.90;;;;;;4988175;28;20082;-74
2021/04/26 00:42:50;;;;;;;2.67;1.85;;;3.30;99.90;;;;;;4987561;28;20491;-74
2021/04/26 00:45:20;;;;;;;2.72;2.15;;;3.10;99.90;;;;;;4988869;28;20110;-74
2021/04/26 00:47:46;;;;;;;4.13;2.00;;;3.00;99.90;;;;;;4987955;28;20074;-74
2021/04/26 00:50:18;;;;;;;3.38;2.17;;;2.90;99.90;;;;;;4988828;28;20071;-74
2021/04/26 00:52:45;;;;;;;3.67;2.20;;;3.00;99.90;;;;;;4987803;28;20085;-74
2021/04/26 00:55:11;;;;;;;6.28;2.63;;;3.10;99.90;;;;;;4988809;28;20095;-74
2021/04/26 00:57:37;;;;;;;5.03;2.83;;;3.30;99.90;;;;;;4988027;28;20086;-75
2021/04/26 01:00:06;;;;;;;4.30;2.08;;;3.30;99.90;;;;;;4989266;28;20093;-74
2021/04/26 01:02:32;;;;;;;4.35;2.55;;;3.40;99.90;;;;;;4989423;28;20075;-73
2021/04/26 01:04:57;;;;;;;4.00;2.53;;;3.30;99.90;;;;;;4991125;28;20124;-73
2021/04/26 01:07:23;;;;;;;4.20;2.30;;;3.20;99.90;;;;;;4986544;28;20079;-73
2021/04/26 01:09:49;;;;;;;3.03;2.03;;;3.20;99.90;;;;;;4987754;28;20145;-74
2021/04/26 01:12:46;;;;;;;2.30;2.00;;;2.90;99.90;;;;;;4987331;28;20078;-74
2021/04/26 01:15:26;;;;;;;3.80;2.58;;;3.10;99.90;;;;;;4987937;28;20095;-74
2021/04/26 01:18:07;;;;;;;8.15;3.30;;;3.40;99.90;;;;;;4993546;28;20469;-74
2021/04/26 01:20:44;;;;;;;4.68;2.88;;;3.70;99.90;;;;;;4971437;28;20078;-74
2021/04/26 01:23:49;;;;;;;6.25;3.47;;;3.90;99.90;;;;;;4988182;28;20105;-74
2021/04/26 01:26:31;;;;;;;8.80;3.40;;;4.20;99.90;;;;;;4963420;28;20117;-74
2021/04/26 01:29:24;;;;;;;5.10;3.03;;;4.30;99.90;;;;;;5007501;28;20161;-73
2021/04/26 01:32:23;;;;;;;4.82;3.00;;;4.40;99.90;;;;;;4987575;28;20789;-74
2021/04/26 01:34:50;;;;;;;7.82;3.97;;;4.50;99.90;;;;;;4990104;28;20091;-74
2021/04/26 01:37:16;;;;;;;5.18;3.72;;;4.60;99.90;;;;;;4988936;28;20166;-74
2021/04/26 01:39:44;;;;;;;5.63;3.75;;;4.60;99.90;;;;;;4971424;28;20803;-74
2021/04/26 01:42:13;;;;;;;6.78;3.38;;;4.70;99.90;;;;;;4988418;28;20082;-74
2021/04/26 01:44:39;;;;;;;7.85;3.65;;;4.60;99.90;;;;;;4987990;28;20559;-74
2021/04/26 01:47:06;;;;;;;5.55;3.67;;;4.70;99.90;;;;;;4988524;28;20075;-74
2021/04/26 01:49:33;;;;;;;8.48;3.35;;;4.70;99.90;;;;;;4988278;28;20075;-74
2021/04/26 01:52:01;;;;;;;8.55;3.53;;;4.70;99.90;;;;;;4974946;28;20519;-74
2021/04/26 01:54:28;;;;;;;7.65;3.60;;;4.70;99.90;;;;;;4991910;28;20098;-74
2021/04/26 01:56:55;;;;;;;5.63;3.25;;;4.70;99.90;;;;;;4988351;28;20075;-74
2021/04/26 01:59:21;;;;;;;6.25;3.53;;;4.70;99.90;;;;;;4987553;28;20089;-74
2021/04/26 02:01:51;;;;;;;8.00;3.70;;;4.80;99.90;;;;;;4987300;28;20071;-74
2021/04/26 02:04:19;;;;;;;5.47;3.30;;;4.90;99.90;;;;;;4996778;28;20136;-74
2021/04/26 02:06:45;;;;;;;6.38;3.47;;;4.90;99.90;;;;;;4986025;28;20156;-73
2021/04/26 02:09:11;;;;;;;5.15;3.72;;;4.80;99.90;;;;;;4987309;28;20608;-73
2021/04/26 02:11:37;;;;;;;8.15;4.25;;;4.60;99.90;;;;;;4988742;28;20079;-74
2021/04/26 02:14:03;;;;;;;7.07;3.10;;;4.60;99.90;;;;;;4985517;28;20116;-73
2021/04/26 02:16:30;;;;;;;7.15;3.53;;;4.70;99.90;;;;;;4990730;28;20079;-73
2021/04/26 02:18:55;;;;;;;6.35;3.40;;;4.80;99.90;;;;;;4991025;28;20161;-73
2021/04/26 02:21:21;;;;;;;5.60;3.33;;;4.80;99.90;;;;;;4991789;28;20490;-74
2021/04/26 02:23:47;;;;;;;4.57;3.40;;;4.80;99.90;;;;;;5004889;28;20098;-74
2021/04/26 02:26:12;;;;;;;5.30;3.60;;;4.80;99.90;;;;;;4991892;28;20152;-74
2021/04/26 02:28:38;;;;;;;8.10;4.45;;;4.70;99.90;;;;;;4989353;28;20105;-74
2021/04/26 02:31:05;;;;;;;6.78;3.60;;;4.80;99.90;;;;;;4990318;28;20150;-73
2021/04/26 02:33:42;;;;;;;7.10;3.40;;;4.90;99.90;;;;;;4991919;28;20247;-74
2021/04/26 02:36:14;;;;;;;5.60;3.35;;;4.90;99.90;;;;;;4995750;28;20075;-73
2021/04/26 02:38:46;;;;;;;6.10;3.55;;;4.80;99.90;;;;;;4993511;28;20074;-74
2021/04/26 02:41:19;;;;;;;5.47;3.33;;;4.60;99.90;;;;;;4990500;28;20185;-73
2021/04/26 02:43:48;;;;;;;5.25;3.55;;;4.40;99.90;;;;;;4997021;28;20094;-74
2021/04/26 02:46:15;;;;;;;8.13;3.67;;;4.50;99.90;;;;;;5008651;28;20098;-74
2021/04/26 02:48:46;;;;;;;4.32;3.08;;;4.50;99.90;;;;;;4975016;28;20074;-74
2021/04/26 02:51:12;;;;;;;3.55;2.90;;;4.50;99.90;;;;;;4994108;28;20063;-74
2021/04/26 02:53:38;;;;;;;5.63;3.28;;;4.60;99.90;;;;;;4996349;28;20137;-74
2021/04/26 02:56:05;;;;;;;6.15;4.22;;;4.60;99.90;;;;;;4989514;28;20543;-74
2021/04/26 02:58:33;;;;;;;6.18;4.07;;;4.60;99.90;;;;;;4989939;28;20079;-74
2021/04/26 03:01:00;;;;;;;6.43;3.63;;;4.70;99.90;;;;;;5003712;28;20078;-74
2021/04/26 03:03:28;;;;;;;5.95;2.95;;;4.70;99.90;;;;;;4990194;28;20143;-74
2021/04/26 03:05:54;;;;;;;6.28;4.18;;;4.60;99.90;;;;;;5003781;28;20091;-74
2021/04/26 03:08:20;;;;;;;7.70;4.55;;;4.70;99.90;;;;;;4989314;28;20082;-74
2021/04/26 03:10:47;;;;;;;8.63;5.07;;;4.80;99.90;;;;;;4990598;28;20109;-74
2021/04/26 03:13:14;;;;;;;5.53;4.05;;;4.70;99.90;;;;;;4993969;28;20110;-73
2021/04/26 03:15:40;;;;;;;7.53;3.83;;;4.80;99.90;;;;;;4991836;28;20125;-73
2021/04/26 03:18:06;;;;;;;5.38;4.00;;;4.70;99.90;;;;;;4989785;28;20079;-74
2021/04/26 03:20:32;;;;;;;9.60;4.45;;;4.60;99.90;;;;;;4972434;28;20785;-74
2021/04/26 03:22:58;;;;;;;6.68;4.10;;;4.70;99.90;;;;;;4994631;28;20082;-74
2021/04/26 03:25:24;;;;;;;6.70;3.58;;;4.70;99.90;;;;;;4988786;28;20111;-74
2021/04/26 03:27:54;;;;;;;7.75;4.10;;;4.80;99.90;;;;;;4988831;28;20543;-74
2021/04/26 03:30:25;;;;;;;5.82;3.35;;;4.80;99.90;;;;;;4972242;28;20078;-74
2021/04/26 03:32:51;;;;;;;5.70;3.50;;;4.80;99.90;;;;;;4989343;28;20099;-74
2021/04/26 03:35:18;;;;;;;5.20;3.53;;;4.70;99.90;;;;;;4999498;28;20119;-74
2021/04/26 03:37:52;;;;;;;4.78;3.00;;;4.70;99.90;;;;;;4989309;28;20087;-74
2021/04/26 03:40:20;;;;;;;5.63;3.15;;;4.70;99.90;;;;;;4988846;28;20091;-74
2021/04/26 03:42:46;;;;;;;5.53;3.72;;;4.70;99.90;;;;;;4990841;28;20090;-74
2021/04/26 03:45:17;;;;;;;7.80;4.32;;;4.70;99.90;;;;;;4990850;28;20091;-73
2021/04/26 03:47:45;;;;;;;8.75;4.10;;;4.70;99.90;;;;;;4989936;28;20098;-74
2021/04/26 03:50:13;;;;;;;5.45;3.55;;;4.70;99.90;;;;;;4990978;28;20067;-74
2021/04/26 03:52:39;;;;;;;6.10;3.67;;;4.80;99.90;;;;;;5019810;22;20106;-72
2021/04/26 03:55:07;;;;;;;3.83;3.28;;;4.80;99.90;;;;;;4981158;28;20218;-72
2021/04/26 03:57:32;;;;;;;9.55;3.63;;;4.70;99.90;;;;;;4978580;28;20129;-73
2021/04/26 03:59:58;;;;;;;4.43;3.50;;;4.70;99.90;;;;;;4981035;28;20154;-72
2021/04/26 04:02:27;;;;;;;7.07;4.63;;;4.70;99.90;;;;;;4973903;28;20102;-72
2021/04/26 04:04:55;;;;;;;6.75;3.63;;;4.60;99.90;;;;;;4979391;28;20145;-72
2021/04/26 04:07:22;;;;;;;7.93;3.55;;;4.60;99.90;;;;;;4983218;28;20071;-75
2021/04/26 04:09:47;;;;;;;7.38;4.07;;;4.60;99.90;;;;;;4980900;28;20550;-75
2021/04/26 04:12:13;;;;;;;4.65;3.67;;;4.60;99.90;;;;;;4974388;28;20095;-76
2021/04/26 04:14:39;;;;;;;7.70;3.45;;;4.70;99.90;;;;;;4972955;28;20126;-75
2021/04/26 04:17:04;;;;;;;7.60;4.07;;;4.60;99.90;;;;;;4969686;28;20582;-75
2021/04/26 04:19:30;;;;;;;6.35;3.42;;;4.70;99.90;;;;;;4956491;28;20079;-75
2021/04/26 04:21:56;;;;;;;6.65;4.38;;;4.60;99.90;;;;;;4955458;28;20816;-75
2021/04/26 04:24:21;;;;;;;8.45;3.80;;;4.50;99.90;;;;;;4970961;28;20083;-76
2021/04/26 04:26:47;;;;;;;6.20;4.07;;;4.40;99.90;;;;;;4964739;28;20095;-75
2021/04/26 04:29:13;;;;;;;8.48;4.78;;;4.50;99.90;;;;;;4970974;28;20094;-74
2021/04/26 04:31:39;;;;;;;7.20;4.03;;;4.50;99.90;;;;;;4954362;28;20099;-75
2021/04/26 04:34:04;;;;;;;7.72;3.88;;;4.50;99.90;;;;;;4970624;28;20075;-75
2021/04/26 04:36:30;;;;;;;9.43;3.50;;;4.50;99.90;;;;;;4969515;28;20095;-75
2021/04/26 04:38:56;;;;;;;7.07;4.03;;;4.50;99.90;;;;;;4974972;28;20129;-75
2021/04/26 04:41:22;;;;;;;5.03;3.63;;;4.50;99.90;;;;;;4955227;28;20091;-75
2021/04/26 04:43:47;;;;;;;6.65;3.83;;;4.40;99.90;;;;;;4971482;28;20079;-75
2021/04/26 04:46:13;;;;;;;10.65;4.30;;;4.40;99.90;;;;;;4970890;28;20101;-76
2021/04/26 04:48:39;;;;;;;8.20;3.88;;;4.40;99.90;;;;;;4968837;28;20071;-75
2021/04/26 04:51:04;;;;;;;4.90;3.55;;;4.40;99.90;;;;;;4968626;28;20079;-75
2021/04/26 04:53:30;;;;;;;6.50;4.20;;;4.40;99.90;;;;;;4969060;28;20107;-75
2021/04/26 04:55:55;;;;;;;7.10;3.75;;;4.40;99.90;;;;;;4982764;28;20556;-75
2021/04/26 04:58:21;;;;;;;6.80;3.65;;;4.40;99.90;;;;;;4969291;28;20130;-75
2021/04/26 05:00:47;;;;;;;8.88;4.30;;;4.50;99.90;;;;;;4953747;28;20079;-76
2021/04/26 05:03:12;;;;;;;7.85;4.30;;;4.50;99.90;;;;;;4975419;28;20619;-76
2021/04/26 05:05:38;;;;;;;6.90;3.85;;;4.50;99.90;;;;;;4952930;28;20083;-75
2021/04/26 05:08:04;;;;;;;6.03;3.88;;;4.60;99.90;;;;;;4994573;28;20067;-76
2021/04/26 05:10:30;;;;;;;6.43;4.03;;;4.70;99.90;;;;;;4975914;28;20181;-75
2021/04/26 05:12:55;;;;;;;10.85;4.00;;;4.80;99.90;;;;;;4988780;28;20125;-75
2021/04/26 05:15:21;;;;;;;7.65;4.80;;;4.80;99.90;;;;;;4969630;28;20078;-76
2021/04/26 05:17:47;;;;;;;7.90;4.43;;;4.70;99.90;;;;;;5008778;28;20470;-76
2021/04/26 05:20:13;;;;;;;9.70;4.85;;;4.70;99.90;;;;;;4982557;28;20090;-75
2021/04/26 05:22:38;;;;;;;6.82;3.88;;;4.80;99.90;;;;;;4974160;28;20510;-75
2021/04/26 05:25:06;;;;;;;6.65;3.95;;;4.90;99.90;;;;;;4961148;28;20098;-74
2021/04/26 05:27:32;;;;;;;7.22;4.43;;;5.00;99.90;;;;;;4973241;28;20067;-75
2021/04/26 05:29:57;;;;;;;6.28;4.00;;;4.90;99.90;;;;;;4975218;28;20079;-76
2021/04/26 05:32:23;;;;;;;6.15;3.72;;;5.00;99.90;;;;;;4953736;28;20122;-76
2021/04/26 05:34:49;;;;;;;5.30;3.72;;;5.10;99.90;;;;;;4994426;28;20074;-76
2021/04/26 05:37:14;;;;;;;7.60;4.10;;;5.10;99.90;;;;;;4986124;28;20458;-75
2021/04/26 05:39:40;;;;;;;5.40;3.38;;;5.20;99.90;;;;;;4971411;28;20086;-75
2021/04/26 05:42:07;;;;;;;5.20;3.28;;;5.10;99.90;;;;;;4955003;28;20091;-76
2021/04/26 05:44:33;;;;;;;7.75;4.30;;;5.10;99.90;;;;;;4970563;28;20173;-75
2021/04/26 05:46:58;;;;;;;5.28;3.75;;;5.20;99.90;;;;;;4956192;28;20630;-75
2021/04/26 05:49:24;;;;;;;5.72;3.88;;;5.30;99.90;;;;;;4972763;28;20154;-76
2021/04/26 05:51:50;;;;;;;7.95;4.13;;;5.30;99.90;;;;;;4964032;28;20106;-75
2021/04/26 05:54:15;;;;;;;5.03;3.83;;;5.40;99.90;;;;;;5006134;28;20534;-76
2021/04/26 05:56:41;;;;;;;7.68;3.80;;;5.50;99.90;;;;;;4983069;28;20141;-73
2021/04/26 05:59:06;;;;;;;5.68;4.05;;;5.50;99.90;;;;;;4967133;28;20095;-73
2021/04/26 06:01:32;;;;;;;5.15;3.35;;;5.60;99.90;;;;;;4959728;28;20533;-73
2021/04/26 06:03:57;;;;;;;6.18;3.53;;;5.60;99.90;;;;;;4977696;28;20080;-72
2021/04/26 06:06:23;;;;;;;10.68;3.92;;;5.70;99.90;;;;;;4975852;28;20103;-72
2021/04/26 06:08:49;;;;;;;4.70;3.55;;;5.80;99.90;;;;;;4955626;28;20630;-71
2021/04/26 06:11:14;;;;;;;7.68;3.92;;;5.90;99.90;;;;;;4978627;28;20118;-73
2021/04/26 06:13:40;;;;;;;6.47;3.47;;;5.90;99.90;;;;;;4976178;28;20530;-72
2021/04/26 06:16:07;;;;;;;7.55;3.67;;;5.90;99.90;;;;;;4987123;28;20079;-72
2021/04/26 06:18:32;;;;;;;4.93;3.38;;;6.00;99.90;;;;;;4993646;28;20083;-71
2021/04/26 06:20:58;;;;;;;8.57;4.15;;;6.10;99.90;;;;;;4972553;28;20138;-71
2021/04/26 06:23:24;;;;;;;7.03;3.60;;;6.10;99.90;;;;;;4979438;28;20099;-71
2021/04/26 06:25:49;;;;;;;9.50;3.60;;;6.20;99.90;;;;;;4971996;28;20183;-73
2021/04/26 06:28:16;;;;;;;8.00;3.03;;;6.30;99.70;;;;;;4979152;28;20792;-72
2021/04/26 06:30:43;;;;;;;5.32;4.00;;;6.40;99.70;;;;;;4981407;28;20083;-72
2021/04/26 06:33:14;;;;;;;5.47;3.33;;;6.60;99.90;;;;;;4958662;28;20586;-76
2021/04/26 06:35:41;;;;;;;7.63;3.60;;;6.60;99.40;;;;;;4983255;28;20101;-72
2021/04/26 06:38:07;;;;;;;5.18;3.25;;;6.70;99.70;;;;;;4958058;28;20090;-77
2021/04/26 06:40:32;;;;;;;4.93;3.15;;;6.80;98.00;;;;;;4961238;28;20173;-72
2021/04/26 06:42:58;;;;;;;5.68;3.58;;;7.00;98.00;;;;;;4967912;28;20095;-73
2021/04/26 06:45:23;;;;;;;6.35;3.88;;;7.10;97.30;;;;;;4986519;28;20210;-74
2021/04/26 06:47:52;;;;;;;4.78;3.92;;;7.30;99.10;;;;;;4981602;28;20083;-82
2021/04/26 06:50:18;;;;;;;5.40;3.58;;;7.50;98.70;;;;;;4962123;28;20099;-77
2021/04/26 06:52:46;;;;;;;6.68;3.47;;;7.40;96.90;;;;;;4978225;28;20161;-75
2021/04/26 06:55:12;;;;;;;5.78;3.25;;;7.40;97.00;;;;;;4985785;28;20542;-75
2021/04/26 06:57:38;;;;;;;6.35;3.88;;;7.30;96.10;;;;;;4969962;28;20079;-74
2021/04/26 07:00:05;;;;;;;6.45;3.40;;;7.50;97.60;;;;;;4987994;28;20079;-75
2021/04/26 07:02:31;;;;;;;4.30;3.30;;;7.70;98.30;;;;;;4982355;28;20133;-76
2021/04/26 07:04:57;;;;;;;6.28;3.50;;;7.70;96.90;;;;;;4981537;28;20095;-76
2021/04/26 07:07:24;;;;;;;5.78;3.83;;;7.70;98.20;;;;;;4969306;28;20154;-77
2021/04/26 07:09:50;;;;;;;7.20;3.80;;;7.60;98.30;;;;;;4986824;28;20590;-75
2021/04/26 07:12:16;;;;;;;6.28;3.65;;;7.50;98.60;;;;;;4977862;28;20129;-76
2021/04/26 07:14:42;;;;;;;5.63;3.60;;;7.60;98.60;;;;;;4981081;28;20090;-75
2021/04/26 07:17:07;;;;;;;7.72;3.80;;;7.70;98.70;;;;;;4972124;28;20080;-76
2021/04/26 07:19:33;;;;;;;7.22;4.10;;;7.70;98.40;;;;;;4984091;28;20106;-75
2021/04/26 07:21:59;;;;;;;6.57;3.97;;;7.80;98.40;;;;;;4978486;28;20091;-75
2021/04/26 07:24:24;;;;;;;10.00;4.32;;;7.70;98.20;;;;;;4970920;28;20086;-75
2021/04/26 07:26:50;;;;;;;6.50;4.57;;;7.70;98.20;;;;;;4969280;28;20563;-75
2021/04/26 07:29:16;;;;;;;8.32;4.20;;;7.80;98.70;;;;;;4955674;28;20086;-75
2021/04/26 07:31:41;;;;;;;9.63;3.70;;;7.90;99.20;;;;;;4982363;28;20097;-75
2021/04/26 07:34:07;;;;;;;5.00;3.60;;;8.00;98.90;;;;;;4989079;28;20079;-74
2021/04/26 07:36:32;;;;;;;6.00;3.60;;;8.00;98.50;;;;;;4983969;28;20083;-72
2021/04/26 07:38:58;;;;;;;6.80;3.83;;;8.00;97.00;;;;;;4958424;28;20079;-72
2021/04/26 07:41:24;;;;;;;5.80;3.55;;;8.00;97.60;;;;;;4971009;28;20087;-74
2021/04/26 07:43:50;;;;;;;6.05;3.72;;;8.10;97.50;;;;;;4975371;28;20166;-74
2021/04/26 07:46:15;;;;;;;16.30;4.10;;;8.30;98.40;;;;;;4984669;28;20746;-74
2021/04/26 07:48:41;;;;;;;8.73;4.43;;;8.30;96.60;;;;;;4971114;28;20081;-75
2021/04/26 07:51:07;;;;;;;4.80;3.75;;;8.40;96.70;;;;;;4974164;28;20154;-72
2021/04/26 07:53:34;;;;;;;8.57;4.15;;;8.30;96.20;;;;;;4977507;28;20107;-72
2021/04/26 07:56:00;;;;;;;6.22;3.42;;;8.40;96.60;;;;;;4966957;28;20558;-72
2021/04/26 07:58:26;;;;;;;8.70;3.30;;;8.40;95.60;;;;;;4988106;28;20463;-72
2021/04/26 08:00:52;;;;;;;5.55;3.53;;;8.50;95.90;;;;;;4983331;28;20146;-71
2021/04/26 08:03:17;;;;;;;5.90;3.30;;;8.60;96.20;;;;;;4985938;28;20102;-71
2021/04/26 08:05:43;;;;;;;5.93;3.30;;;8.70;96.30;;;;;;4970592;28;20095;-72
2021/04/26 08:08:09;;;;;;;6.05;3.30;;;8.80;96.20;;;;;;4962803;28;20075;-72
2021/04/26 08:10:36;;;;;;;6.63;3.53;;;8.90;94.80;;;;;;4963506;28;20095;-72
2021/04/26 08:13:02;;;;;;;9.35;3.30;;;9.00;95.30;;;;;;4960502;28;20097;-72
2021/04/26 08:15:27;;;;;;;6.70;4.00;;;9.10;95.30;;;;;;4986747;28;20087;-71
2021/04/26 08:17:53;;;;;;;7.60;3.75;;;9.10;94.90;;;;;;4955658;28;20106;-72
2021/04/26 08:20:19;;;;;;;6.90;3.95;;;9.00;94.00;;;;;;4981506;28;20074;-72
2021/04/26 08:22:45;;;;;;;6.50;4.00;;;9.00;94.80;;;;;;4978126;28;20095;-72
2021/04/26 08:25:11;;;;;;;8.73;3.33;;;9.20;93.90;;;;;;4972493;28;20097;-72
2021/04/26 08:27:36;;;;;;;5.97;3.25;;;9.20;94.00;;;;;;4973455;28;20079;-72
2021/04/26 08:30:05;;;;;;;7.93;4.00;;;9.20;94.00;;;;;;4976937;28;20080;-73
2021/04/26 08:32:30;;;;;;;4.47;3.20;;;9.30;93.20;;;;;;4971963;28;20577;-73
2021/04/26 08:34:56;;;;;;;7.15;3.50;;;9.40;92.30;;;;;;4980545;28;20086;-73
2021/04/26 08:37:22;;;;;;;9.60;3.72;;;9.60;96.20;;;;;;4952891;28;20086;-73
2021/04/26 08:39:48;;;;;;;5.95;3.70;;;9.90;94.30;;;;;;4972385;28;20158;-72
2021/04/26 08:42:20;;;;;;;5.57;3.20;;;9.80;92.20;;;;;;4973394;28;20170;-74
2021/04/26 08:44:46;;;;;;;5.97;3.45;;;9.60;91.90;;;;;;4970975;28;20999;-74
2021/04/26 08:47:12;;;;;;;4.82;3.40;;;9.50;92.60;;;;;;4979987;28;20081;-73
2021/04/26 08:49:38;;;;;;;7.25;3.40;;;9.70;92.90;;;;;;4988776;28;20071;-74
2021/04/26 08:52:06;;;;;;;7.15;3.70;;;9.90;93.80;;;;;;4977175;28;20122;-77
2021/04/26 08:54:32;;;;;;;6.32;3.13;;;9.70;92.70;;;;;;4974512;28;20598;-73
2021/04/26 08:56:58;;;;;;;6.68;3.58;;;9.80;93.50;;;;;;4980037;28;20079;-74
2021/04/26 08:59:23;;;;;;;5.47;3.10;;;9.90;92.70;;;;;;4983556;28;20137;-74
2021/04/26 09:01:59;;;;;;;5.25;2.95;;;9.80;92.80;;;;;;4956301;28;20759;-74
2021/04/26 09:04:25;;;;;;;7.70;3.72;;;9.90;93.10;;;;;;4974015;28;20079;-73
2021/04/26 09:06:59;;;;;;;5.90;3.38;;;10.00;92.90;;;;;;4971514;28;20106;-73
2021/04/26 09:09:51;;;;;;;11.07;3.53;;;10.10;93.20;;;;;;4958203;28;20103;-73
2021/04/26 09:12:22;;;;;;;9.82;3.83;;;10.00;92.20;;;;;;4973912;28;20110;-75
2021/04/26 09:15:04;;;;;;;4.75;3.53;;;10.00;92.30;;;;;;4984313;28;20102;-74
2021/04/26 09:17:44;;;;;;;5.00;3.38;;;10.10;93.60;;;;;;4969226;28;20075;-74
2021/04/26 09:20:18;;;;;;;10.15;3.30;;;10.20;91.70;;;;;;4952652;28;20174;-74
2021/04/26 09:22:48;;;;;;;5.35;3.67;;;10.20;91.40;;;;;;4961007;28;20097;-74
2021/04/26 09:25:35;;;;;;;8.63;4.10;;;10.40;93.40;;;;;;4959959;28;20727;-75
2021/04/26 09:28:11;;;;;;;8.80;3.97;;;10.40;92.00;;;;;;4983189;28;20077;-75
2021/04/26 09:30:51;;;;;;;6.55;3.80;;;10.40;90.00;;;;;;4988628;28;20121;-76
2021/04/26 09:33:29;;;;;;;7.03;3.42;;;10.60;92.10;;;;;;4987170;28;20123;-74
2021/04/26 09:35:58;;;;;;;7.30;4.35;;;10.50;91.00;;;;;;4986651;28;20435;-75
2021/04/26 09:38:24;;;;;;;3.60;3.08;;;10.50;90.70;;;;;;4956145;28;20075;-73
2021/04/26 09:41:23;;;;;;;8.35;5.35;;;10.60;90.60;;;;;;4980631;28;20094;-74
2021/04/26 09:44:01;;;;;;;5.68;3.53;;;10.50;90.00;;;;;;4971504;28;20091;-75
2021/04/26 09:46:46;;;;;;;7.00;3.33;;;10.50;89.20;;;;;;4977645;28;20094;-75
2021/04/26 09:49:23;;;;;;;6.40;4.07;;;11.00;91.40;;;;;;4993466;28;20475;-74
2021/04/26 09:52:10;;;;;;;5.18;3.95;;;10.90;88.00;;;;;;4970481;28;20095;-74
2021/04/26 09:54:38;;;;;;;6.05;3.95;;;11.00;86.10;;;;;;4957435;28;20141;-75
2021/04/26 09:57:04;;;;;;;6.32;3.08;;;11.00;84.10;;;;;;4966668;28;20454;-76
2021/04/26 09:59:30;;;;;;;6.68;3.33;;;10.90;83.50;;;;;;4992382;28;20084;-74
2021/04/26 10:01:56;;;;;;;10.35;3.53;;;10.90;82.10;;;;;;4988615;28;20091;-74
2021/04/26 10:04:22;;;;;;;4.80;3.17;;;10.90;82.10;;;;;;4959659;28;20083;-74
2021/04/26 10:06:48;;;;;;;6.43;3.40;;;11.00;81.60;;;;;;4971364;28;20161;-74
2021/04/26 10:09:14;;;;;;;5.75;3.38;;;11.00;82.80;;;;;;4974759;28;20631;-74
2021/04/26 10:11:39;;;;;;;4.65;2.70;;;11.10;80.90;;;;;;4961324;28;20074;-74
2021/04/26 10:14:17;;;;;;;7.30;3.33;;;11.20;81.40;;;;;;4973829;28;20106;-75
2021/04/26 10:16:50;;;;;;;7.18;3.05;;;11.50;83.30;;;;;;4981631;28;20446;-73
2021/04/26 10:19:16;;;;;;;4.65;2.95;;;11.30;77.40;;;;;;4973637;28;20083;-74
2021/04/26 10:21:53;;;;;;;6.63;3.22;;;11.40;75.10;;;;;;4977962;28;20149;-74
2021/04/26 10:24:21;;;;;;;5.90;3.38;;;11.30;75.70;;;;;;4955808;28;20736;-73
2021/04/26 10:26:57;;;;;;;4.55;3.10;;;11.20;75.80;;;;;;4984171;28;20090;-73
2021/04/26 10:29:28;;;;;;;5.63;3.65;;;11.20;77.10;;;;;;4976574;28;20071;-73
2021/04/26 10:31:57;;;;;;;5.80;3.97;;;11.20;78.60;;;;;;4972017;28;20102;-74
2021/04/26 10:34:23;;;;;;;6.70;4.10;;;11.30;77.80;;;;;;4955160;28;20210;-74
2021/04/26 10:36:53;;;;;;;7.63;3.60;;;11.60;79.00;;;;;;4978543;28;20135;-74
2021/04/26 10:39:23;;;;;;;6.65;4.00;;;11.90;76.50;;;;;;4964490;28;20499;-74
2021/04/26 10:41:53;;;;;;;6.88;3.28;;;11.80;76.20;;;;;;4989935;28;20134;-74
2021/04/26 10:44:41;;;;;;;7.07;3.00;;;12.20;75.10;;;;;;4954974;28;20075;-74
2021/04/26 10:47:39;;;;;;;4.78;3.38;;;12.20;66.60;;;;;;4960825;28;20788;-74
2021/04/26 10:50:05;;;;;;;4.80;3.58;;;12.10;65.00;;;;;;4985282;28;20546;-75
2021/04/26 10:52:30;;;;;;;4.43;3.20;;;11.90;65.90;;;;;;4962878;28;20095;-74
2021/04/26 10:55:25;;;;;;;9.02;4.18;;;11.80;69.20;;;;;;4955693;28;20078;-75
2021/04/26 10:57:56;;;;;;;6.68;3.60;;;11.80;70.70;;;;;;4962200;28;20118;-75
2021/04/26 11:00:30;;;;;;;5.97;3.40;;;11.70;69.40;;;;;;4960316;28;20094;-74
2021/04/26 11:02:57;;;;;;;4.75;2.80;;;11.70;65.90;;;;;;4957232;28;20148;-74
2021/04/26 11:05:27;;;;;;;6.88;3.22;;;11.70;65.20;;;;;;4971604;28;20226;-75
2021/04/26 11:07:57;;;;;;;6.40;3.63;;;11.90;63.20;;;;;;4979853;28;20086;-75
2021/04/26 11:10:31;;;;;;;9.13;3.72;;;11.80;64.10;;;;;;4986875;28;20177;-75
2021/04/26 11:13:01;;;;;;;5.87;3.00;;;11.90;65.80;;;;;;4990202;28;20090;-73
2021/04/26 11:15:26;;;;;;;5.43;3.40;;;11.90;64.50;;;;;;4983501;28;20338;-74
2021/04/26 11:17:54;;;;;;;5.57;3.17;;;12.00;65.90;;;;;;4974600;28;20079;-73
2021/04/26 11:20:23;;;;;;;8.20;3.22;;;12.00;63.70;;;;;;4954337;28;20094;-74
2021/04/26 11:22:53;;;;;;;6.35;3.28;;;12.10;60.70;;;;;;4959576;28;20106;-73
2021/04/26 11:25:39;;;;;;;6.20;3.60;;;12.20;61.40;;;;;;4975225;28;20091;-74
2021/04/26 11:28:08;;;;;;;5.53;3.22;;;12.10;61.30;;;;;;4977077;28;20075;-74
2021/04/26 11:30:36;;;;;;;7.68;3.42;;;12.10;66.10;;;;;;4989037;28;20539;-74
2021/04/26 11:33:11;;;;;;;5.13;3.55;;;12.00;65.50;;;;;;4962258;28;20234;-74
2021/04/26 11:36:07;;;;;;;5.38;3.40;;;12.40;68.60;;;;;;4982544;28;20106;-73
2021/04/26 11:38:35;;;;;;;5.72;3.08;;;12.20;58.60;;;;;;4980123;28;20174;-73
2021/04/26 11:41:00;;;;;;;5.03;2.90;;;12.20;59.60;;;;;;4967186;28;20083;-74
2021/04/26 11:43:26;;;;;;;8.18;4.07;;;12.10;60.20;;;;;;4967555;28;20460;-74
2021/04/26 11:45:51;;;;;;;4.13;2.80;;;12.00;58.90;;;;;;4971197;28;20502;-73
2021/04/26 11:48:22;;;;;;;6.70;3.08;;;12.10;58.30;;;;;;4970494;28;20096;-74
2021/04/26 11:50:48;;;;;;;7.90;3.38;;;12.30;58.10;;;;;;4972055;28;20072;-74
2021/04/26 11:53:43;;;;;;;5.18;2.78;;;12.30;58.90;;;;;;4954078;28;20569;-73
2021/04/26 11:56:11;;;;;;;7.40;4.20;;;12.60;56.00;;;;;;4951946;28;20173;-73
2021/04/26 11:58:37;;;;;;;9.25;2.92;;;12.40;54.60;;;;;;4974058;28;20158;-74
2021/04/26 12:01:08;;;;;;;5.05;3.08;;;12.30;57.10;;;;;;4972121;28;20102;-73
2021/04/26 12:03:53;;;;;;;7.50;2.95;;;12.30;57.40;;;;;;4953309;28;20095;-74
2021/04/26 12:06:19;;;;;;;5.10;3.10;;;12.50;59.90;;;;;;4973014;28;20098;-74
2021/04/26 12:08:45;;;;;;;6.63;3.35;;;12.70;57.80;;;;;;4978420;28;20976;-73
2021/04/26 12:11:19;;;;;;;11.82;4.72;;;12.60;58.10;;;;;;4987429;28;20071;-74
2021/04/26 12:14:08;;;;;;;8.60;3.95;;;12.40;60.90;;;;;;4973127;28;20145;-73
2021/04/26 12:16:33;;;;;;;4.70;3.47;;;12.60;60.90;;;;;;4952799;28;20086;-73
2021/04/26 12:19:01;;;;;;;6.45;3.63;;;12.70;63.20;;;;;;4987468;28;20442;-73
2021/04/26 12:21:27;;;;;;;4.97;3.15;;;12.60;61.30;;;;;;4972267;28;20126;-74
2021/04/26 12:23:53;;;;;;;4.85;3.05;;;12.60;60.00;;;;;;4988877;28;20102;-75
2021/04/26 12:26:19;;;;;;;5.57;3.40;;;12.70;62.10;;;;;;4981976;28;20086;-75
2021/04/26 12:28:46;;;;;;;6.90;3.65;;;12.80;59.80;;;;;;4979612;28;20076;-72
2021/04/26 12:31:19;;;;;;;6.72;3.97;;;12.80;58.00;;;;;;4969688;28;20102;-74
2021/04/26 12:33:45;;;;;;;5.93;3.88;;;12.60;58.40;;;;;;4955661;28;20097;-73
2021/04/26 12:36:11;;;;;;;5.05;3.80;;;12.70;58.70;;;;;;4959815;28;20075;-73
2021/04/26 12:38:38;;;;;;;6.22;3.45;;;12.70;60.60;;;;;;4986636;28;20550;-73
2021/04/26 12:41:11;;;;;;;5.85;3.65;;;12.70;53.70;;;;;;4972523;28;20120;-73
2021/04/26 12:43:39;;;;;;;5.80;3.72;;;12.80;57.20;;;;;;4968071;28;20110;-74
2021/04/26 12:46:07;;;;;;;7.65;4.15;;;12.80;59.10;;;;;;4968528;28;20098;-74
2021/04/26 12:48:34;;;;;;;8.07;4.50;;;12.80;56.80;;;;;;4960539;28;20162;-73
2021/04/26 12:51:00;;;;;;;6.55;3.97;;;12.70;56.60;;;;;;4975983;28;20070;-76
2021/04/26 12:53:25;;;;;;;3.92;3.22;;;12.60;56.60;;;;;;4970306;28;20655;-76
2021/04/26 12:56:07;;;;;;;4.35;3.38;;;12.70;54.50;;;;;;4952192;28;20266;-75
2021/04/26 12:59:05;;;;;;;5.88;3.80;;;12.80;54.60;;;;;;4973915;28;20107;-76
2021/04/26 13:01:31;;;;;;;9.45;3.50;;;12.80;51.60;;;;;;4967332;28;20559;-75